sensor_id;sensor_type;location;lat;lon;timestamp;P1;durP1;ratioP1;P2;durP2;ratioP2
1505;SDS011;744;51.436;7.356;2023-03-01T00:01:01;10.53;;;7.50;;
1505;SDS011;744;51.436;7.356;2023-03-01T00:03:29;8.17;;;7.37;;
1505;SDS011;744;51.436;7.356;2023-03-01T00:05:55;7.63;;;6.87;;
1505;SDS011;744;51.436;7.356;2023-03-01T00:08:22;7.53;;;6.83;;
1505;SDS011;744;51.436;7.356;2023-03-01T00:10:49;8.53;;;7.13;;
1505;SDS011;744;51.436;7.356;2023-03-01T00:13:25;11.53;;;7.47;;
1505;SDS011;744;51.436;7.356;2023-03-01T00:15:52;8.87;;;7.67;;
1505;SDS011;744;51.436;7.356;2023-03-01T00:18:19;9.40;;;8.50;;
1505;SDS011;744;51.436;7.356;2023-03-01T00:20:49;8.37;;;7.57;;
1505;SDS011;744;51.436;7.356;2023-03-01T00:23:18;7.87;;;7.13;;
1505;SDS011;744;51.436;7.356;2023-03-01T00:25:45;9.23;;;7.70;;
1505;SDS011;744;51.436;7.356;2023-03-01T00:28:12;8.57;;;7.67;;
1505;SDS011;744;51.436;7.356;2023-03-01T00:30:38;9.03;;;8.13;;
1505;SDS011;744;51.436;7.356;2023-03-01T00:33:05;10.70;;;9.67;;
1505;SDS011;744;51.436;7.356;2023-03-01T00:35:32;8.83;;;7.93;;
1505;SDS011;744;51.436;7.356;2023-03-01T00:38:00;10.40;;;8.70;;
1505;SDS011;744;51.436;7.356;2023-03-01T00:40:27;9.00;;;7.70;;
1505;SDS011;744;51.436;7.356;2023-03-01T00:42:55;9.57;;;8.10;;
1505;SDS011;744;51.436;7.356;2023-03-01T00:45:22;8.80;;;7.90;;
1505;SDS011;744;51.436;7.356;2023-03-01T00:47:50;8.83;;;8.00;;
1505;SDS011;744;51.436;7.356;2023-03-01T00:50:17;9.60;;;8.20;;
1505;SDS011;744;51.436;7.356;2023-03-01T00:52:44;9.33;;;8.37;;
1505;SDS011;744;51.436;7.356;2023-03-01T00:55:11;10.70;;;8.37;;
1505;SDS011;744;51.436;7.356;2023-03-01T00:57:38;8.23;;;7.50;;
1505;SDS011;744;51.436;7.356;2023-03-01T01:00:05;10.07;;;8.10;;
1505;SDS011;744;51.436;7.356;2023-03-01T01:02:33;10.20;;;7.53;;
1505;SDS011;744;51.436;7.356;2023-03-01T01:05:00;8.77;;;7.87;;
1505;SDS011;744;51.436;7.356;2023-03-01T01:07:27;9.90;;;8.10;;
1505;SDS011;744;51.436;7.356;2023-03-01T01:09:53;8.03;;;7.27;;
1505;SDS011;744;51.436;7.356;2023-03-01T01:12:20;10.40;;;7.47;;
1505;SDS011;744;51.436;7.356;2023-03-01T01:14:47;9.30;;;7.40;;
1505;SDS011;744;51.436;7.356;2023-03-01T01:17:14;9.70;;;7.73;;
1505;SDS011;744;51.436;7.356;2023-03-01T01:19:41;8.97;;;7.57;;
1505;SDS011;744;51.436;7.356;2023-03-01T01:22:07;8.40;;;7.00;;
1505;SDS011;744;51.436;7.356;2023-03-01T01:24:34;10.97;;;8.27;;
1505;SDS011;744;51.436;7.356;2023-03-01T01:27:01;11.43;;;9.30;;
1505;SDS011;744;51.436;7.356;2023-03-01T01:29:28;8.93;;;8.03;;
1505;SDS011;744;51.436;7.356;2023-03-01T01:31:55;8.30;;;7.50;;
1505;SDS011;744;51.436;7.356;2023-03-01T01:34:22;11.37;;;9.23;;
1505;SDS011;744;51.436;7.356;2023-03-01T01:36:49;11.37;;;7.60;;
1505;SDS011;744;51.436;7.356;2023-03-01T01:39:22;10.00;;;7.90;;
1505;SDS011;744;51.436;7.356;2023-03-01T01:41:49;9.10;;;8.13;;
1505;SDS011;744;51.436;7.356;2023-03-01T01:46:53;8.60;;;7.67;;
1505;SDS011;744;51.436;7.356;2023-03-01T01:52:07;8.00;;;7.30;;
1505;SDS011;744;51.436;7.356;2023-03-01T01:54:46;8.33;;;7.53;;
1505;SDS011;744;51.436;7.356;2023-03-01T01:57:18;8.47;;;7.33;;
1505;SDS011;744;51.436;7.356;2023-03-01T01:59:49;9.27;;;7.80;;
1505;SDS011;744;51.436;7.356;2023-03-01T02:02:19;8.80;;;7.93;;
1505;SDS011;744;51.436;7.356;2023-03-01T02:04:47;7.70;;;6.90;;
1505;SDS011;744;51.436;7.356;2023-03-01T02:07:17;9.63;;;7.07;;
1505;SDS011;744;51.436;7.356;2023-03-01T02:09:47;8.57;;;7.23;;
1505;SDS011;744;51.436;7.356;2023-03-01T02:12:16;9.53;;;7.40;;
1505;SDS011;744;51.436;7.356;2023-03-01T02:14:45;8.43;;;7.50;;
1505;SDS011;744;51.436;7.356;2023-03-01T02:17:12;7.27;;;6.57;;
1505;SDS011;744;51.436;7.356;2023-03-01T02:20:17;11.13;;;6.87;;
1505;SDS011;744;51.436;7.356;2023-03-01T02:22:47;9.83;;;7.43;;
1505;SDS011;744;51.436;7.356;2023-03-01T02:27:58;10.97;;;7.37;;
1505;SDS011;744;51.436;7.356;2023-03-01T02:30:48;7.77;;;7.07;;
1505;SDS011;744;51.436;7.356;2023-03-01T02:33:35;8.33;;;7.40;;
1505;SDS011;744;51.436;7.356;2023-03-01T02:36:04;7.50;;;6.80;;
1505;SDS011;744;51.436;7.356;2023-03-01T02:38:35;7.43;;;6.73;;
1505;SDS011;744;51.436;7.356;2023-03-01T02:41:02;8.13;;;7.37;;
1505;SDS011;744;51.436;7.356;2023-03-01T02:43:32;9.10;;;7.47;;
1505;SDS011;744;51.436;7.356;2023-03-01T02:46:02;8.43;;;6.73;;
1505;SDS011;744;51.436;7.356;2023-03-01T02:48:54;8.37;;;7.33;;
1505;SDS011;744;51.436;7.356;2023-03-01T02:54:28;9.63;;;7.60;;
1505;SDS011;744;51.436;7.356;2023-03-01T02:57:02;8.67;;;7.20;;
1505;SDS011;744;51.436;7.356;2023-03-01T02:59:30;7.80;;;7.00;;
1505;SDS011;744;51.436;7.356;2023-03-01T03:02:06;8.07;;;7.00;;
1505;SDS011;744;51.436;7.356;2023-03-01T03:04:33;11.27;;;8.20;;
1505;SDS011;744;51.436;7.356;2023-03-01T03:07:00;8.33;;;7.33;;
1505;SDS011;744;51.436;7.356;2023-03-01T03:09:27;12.10;;;7.50;;
1505;SDS011;744;51.436;7.356;2023-03-01T03:11:54;10.63;;;7.70;;
1505;SDS011;744;51.436;7.356;2023-03-01T03:14:21;7.57;;;6.87;;
1505;SDS011;744;51.436;7.356;2023-03-01T03:16:48;9.30;;;7.50;;
1505;SDS011;744;51.436;7.356;2023-03-01T03:19:16;9.07;;;8.10;;
1505;SDS011;744;51.436;7.356;2023-03-01T03:21:44;7.63;;;6.80;;
1505;SDS011;744;51.436;7.356;2023-03-01T03:24:11;9.27;;;7.83;;
1505;SDS011;744;51.436;7.356;2023-03-01T03:26:37;9.00;;;8.10;;
1505;SDS011;744;51.436;7.356;2023-03-01T03:29:04;7.93;;;7.20;;
1505;SDS011;744;51.436;7.356;2023-03-01T03:31:31;8.40;;;7.27;;
1505;SDS011;744;51.436;7.356;2023-03-01T03:33:58;14.00;;;7.83;;
1505;SDS011;744;51.436;7.356;2023-03-01T03:36:25;10.83;;;8.23;;
1505;SDS011;744;51.436;7.356;2023-03-01T03:38:52;12.00;;;7.60;;
1505;SDS011;744;51.436;7.356;2023-03-01T03:41:19;11.60;;;8.37;;
1505;SDS011;744;51.436;7.356;2023-03-01T03:43:45;8.93;;;7.93;;
1505;SDS011;744;51.436;7.356;2023-03-01T03:46:12;9.10;;;8.20;;
1505;SDS011;744;51.436;7.356;2023-03-01T03:48:40;10.90;;;8.67;;
1505;SDS011;744;51.436;7.356;2023-03-01T03:51:10;8.37;;;7.50;;
1505;SDS011;744;51.436;7.356;2023-03-01T03:53:42;10.80;;;9.80;;
1505;SDS011;744;51.436;7.356;2023-03-01T03:59:38;9.83;;;8.00;;
1505;SDS011;744;51.436;7.356;2023-03-01T04:02:04;7.50;;;6.70;;
1505;SDS011;744;51.436;7.356;2023-03-01T04:04:31;8.77;;;7.97;;
1505;SDS011;744;51.436;7.356;2023-03-01T04:06:58;11.53;;;7.80;;
1505;SDS011;744;51.436;7.356;2023-03-01T04:09:25;9.20;;;8.30;;
1505;SDS011;744;51.436;7.356;2023-03-01T04:11:51;14.30;;;8.33;;
1505;SDS011;744;51.436;7.356;2023-03-01T04:14:18;10.63;;;8.03;;
1505;SDS011;744;51.436;7.356;2023-03-01T04:16:45;13.03;;;6.70;;
1505;SDS011;744;51.436;7.356;2023-03-01T04:19:12;8.40;;;7.00;;
1505;SDS011;744;51.436;7.356;2023-03-01T04:21:38;8.53;;;7.60;;
1505;SDS011;744;51.436;7.356;2023-03-01T04:24:05;8.70;;;7.73;;
1505;SDS011;744;51.436;7.356;2023-03-01T04:26:32;7.87;;;6.80;;
1505;SDS011;744;51.436;7.356;2023-03-01T04:28:59;7.97;;;6.93;;
1505;SDS011;744;51.436;7.356;2023-03-01T04:31:26;8.20;;;7.40;;
1505;SDS011;744;51.436;7.356;2023-03-01T04:33:54;10.27;;;7.53;;
1505;SDS011;744;51.436;7.356;2023-03-01T04:36:22;8.90;;;7.03;;
1505;SDS011;744;51.436;7.356;2023-03-01T04:38:51;7.57;;;6.83;;
1505;SDS011;744;51.436;7.356;2023-03-01T04:41:19;10.97;;;8.70;;
1505;SDS011;744;51.436;7.356;2023-03-01T04:43:47;9.00;;;7.93;;
1505;SDS011;744;51.436;7.356;2023-03-01T04:46:15;12.33;;;8.27;;
1505;SDS011;744;51.436;7.356;2023-03-01T04:48:44;11.03;;;8.27;;
1505;SDS011;744;51.436;7.356;2023-03-01T04:51:13;10.07;;;8.80;;
1505;SDS011;744;51.436;7.356;2023-03-01T04:53:40;10.60;;;8.47;;
1505;SDS011;744;51.436;7.356;2023-03-01T04:56:08;10.47;;;8.77;;
1505;SDS011;744;51.436;7.356;2023-03-01T04:58:35;10.60;;;7.73;;
1505;SDS011;744;51.436;7.356;2023-03-01T05:01:07;9.97;;;8.60;;
1505;SDS011;744;51.436;7.356;2023-03-01T05:03:45;9.70;;;8.70;;
1505;SDS011;744;51.436;7.356;2023-03-01T05:06:13;9.10;;;8.07;;
1505;SDS011;744;51.436;7.356;2023-03-01T05:08:41;10.43;;;7.80;;
1505;SDS011;744;51.436;7.356;2023-03-01T05:11:09;10.50;;;9.40;;
1505;SDS011;744;51.436;7.356;2023-03-01T05:13:37;10.13;;;8.17;;
1505;SDS011;744;51.436;7.356;2023-03-01T05:16:05;13.47;;;8.90;;
1505;SDS011;744;51.436;7.356;2023-03-01T05:18:33;9.43;;;8.43;;
1505;SDS011;744;51.436;7.356;2023-03-01T05:21:08;11.97;;;9.27;;
1505;SDS011;744;51.436;7.356;2023-03-01T05:23:36;8.47;;;7.67;;
1505;SDS011;744;51.436;7.356;2023-03-01T05:26:03;12.40;;;9.37;;
1505;SDS011;744;51.436;7.356;2023-03-01T05:28:36;11.67;;;8.97;;
1505;SDS011;744;51.436;7.356;2023-03-01T05:31:04;9.60;;;8.10;;
1505;SDS011;744;51.436;7.356;2023-03-01T05:33:39;12.33;;;8.80;;
1505;SDS011;744;51.436;7.356;2023-03-01T05:36:07;10.03;;;8.33;;
1505;SDS011;744;51.436;7.356;2023-03-01T05:38:36;9.20;;;8.20;;
1505;SDS011;744;51.436;7.356;2023-03-01T05:41:02;12.50;;;8.70;;
1505;SDS011;744;51.436;7.356;2023-03-01T05:43:30;9.10;;;8.20;;
1505;SDS011;744;51.436;7.356;2023-03-01T05:46:00;10.73;;;8.60;;
1505;SDS011;744;51.436;7.356;2023-03-01T05:48:27;13.50;;;9.10;;
1505;SDS011;744;51.436;7.356;2023-03-01T05:50:54;10.37;;;7.90;;
1505;SDS011;744;51.436;7.356;2023-03-01T05:53:21;9.60;;;8.20;;
1505;SDS011;744;51.436;7.356;2023-03-01T05:55:47;10.73;;;9.27;;
1505;SDS011;744;51.436;7.356;2023-03-01T05:58:17;9.93;;;8.43;;
1505;SDS011;744;51.436;7.356;2023-03-01T06:00:46;9.90;;;8.90;;
1505;SDS011;744;51.436;7.356;2023-03-01T06:03:14;10.90;;;9.60;;
1505;SDS011;744;51.436;7.356;2023-03-01T06:05:42;13.40;;;10.60;;
1505;SDS011;744;51.436;7.356;2023-03-01T06:08:10;10.07;;;9.00;;
1505;SDS011;744;51.436;7.356;2023-03-01T06:10:38;10.83;;;9.00;;
1505;SDS011;744;51.436;7.356;2023-03-01T06:13:05;11.10;;;9.23;;
1505;SDS011;744;51.436;7.356;2023-03-01T06:15:31;10.33;;;9.27;;
1505;SDS011;744;51.436;7.356;2023-03-01T06:17:58;11.53;;;9.97;;
1505;SDS011;744;51.436;7.356;2023-03-01T06:20:26;11.83;;;8.97;;
1505;SDS011;744;51.436;7.356;2023-03-01T06:22:54;10.87;;;8.53;;
1505;SDS011;744;51.436;7.356;2023-03-01T06:25:22;15.53;;;8.70;;
1505;SDS011;744;51.436;7.356;2023-03-01T06:27:50;14.20;;;9.17;;
1505;SDS011;744;51.436;7.356;2023-03-01T06:30:21;13.57;;;9.33;;
1505;SDS011;744;51.436;7.356;2023-03-01T06:32:49;9.80;;;8.33;;
1505;SDS011;744;51.436;7.356;2023-03-01T06:35:17;10.20;;;8.33;;
1505;SDS011;744;51.436;7.356;2023-03-01T06:37:45;9.97;;;7.60;;
1505;SDS011;744;51.436;7.356;2023-03-01T06:40:13;12.37;;;8.43;;
1505;SDS011;744;51.436;7.356;2023-03-01T06:42:42;9.43;;;8.10;;
1505;SDS011;744;51.436;7.356;2023-03-01T06:45:10;10.30;;;8.30;;
1505;SDS011;744;51.436;7.356;2023-03-01T06:47:37;8.77;;;7.87;;
1505;SDS011;744;51.436;7.356;2023-03-01T06:50:04;11.80;;;7.70;;
1505;SDS011;744;51.436;7.356;2023-03-01T06:52:32;10.63;;;9.43;;
1505;SDS011;744;51.436;7.356;2023-03-01T06:54:59;10.37;;;7.70;;
1505;SDS011;744;51.436;7.356;2023-03-01T06:57:26;9.80;;;8.07;;
1505;SDS011;744;51.436;7.356;2023-03-01T06:59:53;9.27;;;8.30;;
1505;SDS011;744;51.436;7.356;2023-03-01T07:02:20;11.87;;;10.00;;
1505;SDS011;744;51.436;7.356;2023-03-01T07:04:48;13.20;;;9.23;;
1505;SDS011;744;51.436;7.356;2023-03-01T07:07:18;16.33;;;8.67;;
1505;SDS011;744;51.436;7.356;2023-03-01T07:09:46;8.30;;;7.07;;
1505;SDS011;744;51.436;7.356;2023-03-01T07:12:14;9.43;;;7.63;;
1505;SDS011;744;51.436;7.356;2023-03-01T07:14:43;8.63;;;6.87;;
1505;SDS011;744;51.436;7.356;2023-03-01T07:17:10;12.03;;;7.80;;
1505;SDS011;744;51.436;7.356;2023-03-01T07:19:36;11.33;;;8.53;;
1505;SDS011;744;51.436;7.356;2023-03-01T07:22:03;10.37;;;9.27;;
1505;SDS011;744;51.436;7.356;2023-03-01T07:24:30;11.40;;;10.20;;
1505;SDS011;744;51.436;7.356;2023-03-01T07:26:57;10.63;;;9.50;;
1505;SDS011;744;51.436;7.356;2023-03-01T07:29:24;11.00;;;9.90;;
1505;SDS011;744;51.436;7.356;2023-03-01T07:31:50;12.13;;;9.87;;
1505;SDS011;744;51.436;7.356;2023-03-01T07:34:17;9.90;;;8.90;;
1505;SDS011;744;51.436;7.356;2023-03-01T07:36:44;17.40;;;10.27;;
1505;SDS011;744;51.436;7.356;2023-03-01T07:39:11;12.23;;;9.90;;
1505;SDS011;744;51.436;7.356;2023-03-01T07:41:38;12.93;;;10.53;;
1505;SDS011;744;51.436;7.356;2023-03-01T07:44:05;12.93;;;9.10;;
1505;SDS011;744;51.436;7.356;2023-03-01T07:46:32;13.37;;;9.13;;
1505;SDS011;744;51.436;7.356;2023-03-01T07:48:59;9.87;;;8.93;;
1505;SDS011;744;51.436;7.356;2023-03-01T07:51:25;11.10;;;9.27;;
1505;SDS011;744;51.436;7.356;2023-03-01T07:53:52;11.33;;;9.83;;
1505;SDS011;744;51.436;7.356;2023-03-01T07:56:19;10.43;;;9.23;;
1505;SDS011;744;51.436;7.356;2023-03-01T07:58:48;16.60;;;9.53;;
1505;SDS011;744;51.436;7.356;2023-03-01T08:01:17;10.17;;;8.20;;
1505;SDS011;744;51.436;7.356;2023-03-01T08:03:46;9.27;;;8.47;;
1505;SDS011;744;51.436;7.356;2023-03-01T08:06:14;11.83;;;8.93;;
1505;SDS011;744;51.436;7.356;2023-03-01T08:08:42;9.93;;;8.93;;
1505;SDS011;744;51.436;7.356;2023-03-01T08:11:10;10.73;;;8.23;;
1505;SDS011;744;51.436;7.356;2023-03-01T08:13:38;12.10;;;8.70;;
1505;SDS011;744;51.436;7.356;2023-03-01T08:16:06;13.37;;;8.83;;
1505;SDS011;744;51.436;7.356;2023-03-01T08:18:36;11.10;;;9.30;;
1505;SDS011;744;51.436;7.356;2023-03-01T08:21:03;10.27;;;8.07;;
1505;SDS011;744;51.436;7.356;2023-03-01T08:23:31;9.90;;;8.70;;
1505;SDS011;744;51.436;7.356;2023-03-01T08:28:32;15.73;;;8.57;;
1505;SDS011;744;51.436;7.356;2023-03-01T08:30:59;10.20;;;9.10;;
1505;SDS011;744;51.436;7.356;2023-03-01T08:33:26;9.53;;;8.10;;
1505;SDS011;744;51.436;7.356;2023-03-01T08:36:01;11.67;;;9.27;;
1505;SDS011;744;51.436;7.356;2023-03-01T08:38:29;11.60;;;9.10;;
1505;SDS011;744;51.436;7.356;2023-03-01T08:40:58;10.80;;;8.53;;
1505;SDS011;744;51.436;7.356;2023-03-01T08:43:26;11.07;;;9.40;;
1505;SDS011;744;51.436;7.356;2023-03-01T08:45:52;12.50;;;9.70;;
1505;SDS011;744;51.436;7.356;2023-03-01T08:48:19;11.27;;;7.63;;
1505;SDS011;744;51.436;7.356;2023-03-01T08:50:46;9.10;;;7.50;;
1505;SDS011;744;51.436;7.356;2023-03-01T08:53:13;7.10;;;6.40;;
1505;SDS011;744;51.436;7.356;2023-03-01T08:55:40;8.93;;;7.80;;
1505;SDS011;744;51.436;7.356;2023-03-01T08:58:06;7.83;;;7.03;;
1505;SDS011;744;51.436;7.356;2023-03-01T09:00:33;8.40;;;7.03;;
1505;SDS011;744;51.436;7.356;2023-03-01T09:03:01;8.23;;;6.93;;
1505;SDS011;744;51.436;7.356;2023-03-01T09:05:30;7.90;;;6.57;;
1505;SDS011;744;51.436;7.356;2023-03-01T09:07:58;8.63;;;7.13;;
1505;SDS011;744;51.436;7.356;2023-03-01T09:10:25;7.57;;;6.87;;
1505;SDS011;744;51.436;7.356;2023-03-01T09:12:52;7.80;;;7.00;;
1505;SDS011;744;51.436;7.356;2023-03-01T09:15:19;8.03;;;6.23;;
1505;SDS011;744;51.436;7.356;2023-03-01T09:17:46;7.73;;;6.33;;
1505;SDS011;744;51.436;7.356;2023-03-01T09:20:13;8.27;;;6.30;;
1505;SDS011;744;51.436;7.356;2023-03-01T09:22:39;7.00;;;6.07;;
1505;SDS011;744;51.436;7.356;2023-03-01T09:25:06;6.63;;;5.97;;
1505;SDS011;744;51.436;7.356;2023-03-01T09:27:33;6.83;;;5.53;;
1505;SDS011;744;51.436;7.356;2023-03-01T09:30:00;8.07;;;6.37;;
1505;SDS011;744;51.436;7.356;2023-03-01T09:32:29;9.60;;;6.40;;
1505;SDS011;744;51.436;7.356;2023-03-01T09:34:57;6.10;;;5.50;;
1505;SDS011;744;51.436;7.356;2023-03-01T09:37:33;7.20;;;5.93;;
1505;SDS011;744;51.436;7.356;2023-03-01T09:40:02;6.27;;;5.50;;
1505;SDS011;744;51.436;7.356;2023-03-01T09:42:32;6.63;;;6.03;;
1505;SDS011;744;51.436;7.356;2023-03-01T09:45:05;8.33;;;5.87;;
1505;SDS011;744;51.436;7.356;2023-03-01T09:47:37;8.20;;;6.40;;
1505;SDS011;744;51.436;7.356;2023-03-01T09:50:14;7.23;;;6.33;;
1505;SDS011;744;51.436;7.356;2023-03-01T09:52:47;6.43;;;5.57;;
1505;SDS011;744;51.436;7.356;2023-03-01T09:58:50;6.63;;;5.70;;
1505;SDS011;744;51.436;7.356;2023-03-01T10:01:28;6.13;;;5.53;;
1505;SDS011;744;51.436;7.356;2023-03-01T10:06:50;7.03;;;5.60;;
1505;SDS011;744;51.436;7.356;2023-03-01T10:09:24;7.90;;;6.07;;
1505;SDS011;744;51.436;7.356;2023-03-01T10:11:54;8.97;;;5.93;;
1505;SDS011;744;51.436;7.356;2023-03-01T10:17:15;4.83;;;4.43;;
1505;SDS011;744;51.436;7.356;2023-03-01T10:20:17;7.28;;;5.63;;
1505;SDS011;744;51.436;7.356;2023-03-01T10:22:47;6.03;;;5.33;;
1505;SDS011;744;51.436;7.356;2023-03-01T10:25:22;6.57;;;5.40;;
1505;SDS011;744;51.436;7.356;2023-03-01T10:28:25;8.23;;;5.73;;
1505;SDS011;744;51.436;7.356;2023-03-01T10:30:57;7.87;;;4.77;;
1505;SDS011;744;51.436;7.356;2023-03-01T10:33:32;5.03;;;4.50;;
1505;SDS011;744;51.436;7.356;2023-03-01T10:36:03;6.20;;;4.70;;
1505;SDS011;744;51.436;7.356;2023-03-01T10:38:31;4.97;;;4.50;;
1505;SDS011;744;51.436;7.356;2023-03-01T10:41:13;5.83;;;5.00;;
1505;SDS011;744;51.436;7.356;2023-03-01T10:43:47;6.13;;;5.00;;
1505;SDS011;744;51.436;7.356;2023-03-01T10:46:37;5.30;;;4.80;;
1505;SDS011;744;51.436;7.356;2023-03-01T10:49:22;6.60;;;5.70;;
1505;SDS011;744;51.436;7.356;2023-03-01T10:51:52;5.13;;;4.63;;
1505;SDS011;744;51.436;7.356;2023-03-01T10:54:29;9.00;;;5.77;;
1505;SDS011;744;51.436;7.356;2023-03-01T10:56:59;7.27;;;4.77;;
1505;SDS011;744;51.436;7.356;2023-03-01T11:02:20;5.90;;;5.13;;
1505;SDS011;744;51.436;7.356;2023-03-01T11:04:56;7.10;;;6.27;;
1505;SDS011;744;51.436;7.356;2023-03-01T11:07:27;8.63;;;5.83;;
1505;SDS011;744;51.436;7.356;2023-03-01T11:09:54;7.00;;;6.20;;
1505;SDS011;744;51.436;7.356;2023-03-01T11:12:21;7.20;;;5.97;;
1505;SDS011;744;51.436;7.356;2023-03-01T11:14:49;7.33;;;5.93;;
1505;SDS011;744;51.436;7.356;2023-03-01T11:17:29;6.50;;;5.90;;
1505;SDS011;744;51.436;7.356;2023-03-01T11:23:25;6.80;;;5.27;;
1505;SDS011;744;51.436;7.356;2023-03-01T11:25:35;6.17;;;5.53;;
1505;SDS011;744;51.436;7.356;2023-03-01T11:28:05;9.70;;;5.83;;
1505;SDS011;744;51.436;7.356;2023-03-01T11:30:53;9.70;;;5.90;;
1505;SDS011;744;51.436;7.356;2023-03-01T11:42:02;6.27;;;5.67;;
1505;SDS011;744;51.436;7.356;2023-03-01T11:44:44;7.13;;;5.67;;
1505;SDS011;744;51.436;7.356;2023-03-01T11:58:59;7.57;;;5.17;;
1505;SDS011;744;51.436;7.356;2023-03-01T12:09:56;5.60;;;5.03;;
1505;SDS011;744;51.436;7.356;2023-03-01T12:26:31;6.47;;;5.83;;
1505;SDS011;744;51.436;7.356;2023-03-01T12:29:21;8.40;;;6.20;;
1505;SDS011;744;51.436;7.356;2023-03-01T12:34:43;7.00;;;6.10;;
1505;SDS011;744;51.436;7.356;2023-03-01T12:38:04;6.37;;;5.43;;
1505;SDS011;744;51.436;7.356;2023-03-01T12:48:54;7.00;;;6.13;;
1505;SDS011;744;51.436;7.356;2023-03-01T12:51:34;6.03;;;5.40;;
1505;SDS011;744;51.436;7.356;2023-03-01T12:54:16;6.03;;;5.40;;
1505;SDS011;744;51.436;7.356;2023-03-01T12:56:49;6.53;;;5.63;;
1505;SDS011;744;51.436;7.356;2023-03-01T13:04:53;6.93;;;5.70;;
1505;SDS011;744;51.436;7.356;2023-03-01T13:10:48;7.33;;;6.00;;
1505;SDS011;744;51.436;7.356;2023-03-01T13:13:19;6.00;;;5.40;;
1505;SDS011;744;51.436;7.356;2023-03-01T13:15:47;6.50;;;5.67;;
1505;SDS011;744;51.436;7.356;2023-03-01T13:20:49;6.43;;;5.73;;
1505;SDS011;744;51.436;7.356;2023-03-01T13:31:02;6.30;;;5.10;;
1505;SDS011;744;51.436;7.356;2023-03-01T13:33:39;7.93;;;5.83;;
1505;SDS011;744;51.436;7.356;2023-03-01T13:38:59;5.80;;;5.20;;
1505;SDS011;744;51.436;7.356;2023-03-01T13:44:51;5.83;;;5.23;;
1505;SDS011;744;51.436;7.356;2023-03-01T13:49:45;6.07;;;5.47;;
1505;SDS011;744;51.436;7.356;2023-03-01T13:54:59;9.67;;;6.60;;
1505;SDS011;744;51.436;7.356;2023-03-01T13:57:30;5.47;;;4.90;;
1505;SDS011;744;51.436;7.356;2023-03-01T14:00:00;5.20;;;4.70;;
1505;SDS011;744;51.436;7.356;2023-03-01T14:02:27;7.67;;;4.70;;
1505;SDS011;744;51.436;7.356;2023-03-01T14:05:00;6.63;;;5.20;;
1505;SDS011;744;51.436;7.356;2023-03-01T14:07:27;5.77;;;5.20;;
1505;SDS011;744;51.436;7.356;2023-03-01T14:10:01;5.37;;;4.87;;
1505;SDS011;744;51.436;7.356;2023-03-01T14:15:26;5.37;;;4.80;;
1505;SDS011;744;51.436;7.356;2023-03-01T14:20:39;5.90;;;4.80;;
1505;SDS011;744;51.436;7.356;2023-03-01T14:23:10;5.83;;;4.67;;
1505;SDS011;744;51.436;7.356;2023-03-01T14:25:45;7.10;;;4.70;;
1505;SDS011;744;51.436;7.356;2023-03-01T14:30:55;9.00;;;5.03;;
1505;SDS011;744;51.436;7.356;2023-03-01T14:33:24;8.03;;;5.57;;
1505;SDS011;744;51.436;7.356;2023-03-01T14:38:37;6.00;;;4.70;;
1505;SDS011;744;51.436;7.356;2023-03-01T14:41:08;6.87;;;4.53;;
1505;SDS011;744;51.436;7.356;2023-03-01T14:43:45;7.80;;;4.60;;
1505;SDS011;744;51.436;7.356;2023-03-01T14:46:26;7.93;;;5.10;;
1505;SDS011;744;51.436;7.356;2023-03-01T14:49:01;5.10;;;4.67;;
1505;SDS011;744;51.436;7.356;2023-03-01T14:51:39;4.93;;;4.37;;
1505;SDS011;744;51.436;7.356;2023-03-01T14:59:43;6.37;;;5.20;;
1505;SDS011;744;51.436;7.356;2023-03-01T15:02:17;5.40;;;4.70;;
1505;SDS011;744;51.436;7.356;2023-03-01T15:04:51;5.30;;;4.80;;
1505;SDS011;744;51.436;7.356;2023-03-01T15:07:24;5.10;;;4.60;;
1505;SDS011;744;51.436;7.356;2023-03-01T15:09:55;7.03;;;5.53;;
1505;SDS011;744;51.436;7.356;2023-03-01T15:14:55;7.00;;;5.23;;
1505;SDS011;744;51.436;7.356;2023-03-01T15:17:33;6.43;;;4.80;;
1505;SDS011;744;51.436;7.356;2023-03-01T15:20:05;9.47;;;5.70;;
1505;SDS011;744;51.436;7.356;2023-03-01T15:22:45;6.20;;;5.23;;
1505;SDS011;744;51.436;7.356;2023-03-01T15:25:16;12.73;;;8.90;;
1505;SDS011;744;51.436;7.356;2023-03-01T15:27:45;9.60;;;6.47;;
1505;SDS011;744;51.436;7.356;2023-03-01T15:30:17;7.57;;;5.80;;
1505;SDS011;744;51.436;7.356;2023-03-01T15:32:46;7.30;;;6.13;;
1505;SDS011;744;51.436;7.356;2023-03-01T15:39:03;8.33;;;5.07;;
1505;SDS011;744;51.436;7.356;2023-03-01T15:41:24;8.10;;;6.20;;
1505;SDS011;744;51.436;7.356;2023-03-01T15:43:53;6.40;;;4.90;;
1505;SDS011;744;51.436;7.356;2023-03-01T15:46:31;6.20;;;5.60;;
1505;SDS011;744;51.436;7.356;2023-03-01T15:49:02;5.90;;;5.30;;
1505;SDS011;744;51.436;7.356;2023-03-01T15:51:37;6.30;;;5.00;;
1505;SDS011;744;51.436;7.356;2023-03-01T15:54:11;5.37;;;4.87;;
1505;SDS011;744;51.436;7.356;2023-03-01T15:56:45;5.60;;;4.83;;
1505;SDS011;744;51.436;7.356;2023-03-01T15:59:12;5.37;;;4.87;;
1505;SDS011;744;51.436;7.356;2023-03-01T16:01:40;6.47;;;5.87;;
1505;SDS011;744;51.436;7.356;2023-03-01T16:04:14;6.00;;;5.33;;
1505;SDS011;744;51.436;7.356;2023-03-01T16:06:50;5.40;;;4.57;;
1505;SDS011;744;51.436;7.356;2023-03-01T16:09:22;10.33;;;6.27;;
1505;SDS011;744;51.436;7.356;2023-03-01T16:11:50;6.50;;;4.90;;
1505;SDS011;744;51.436;7.356;2023-03-01T16:14:17;6.87;;;5.10;;
1505;SDS011;744;51.436;7.356;2023-03-01T16:16:44;7.77;;;5.10;;
1505;SDS011;744;51.436;7.356;2023-03-01T16:19:12;5.57;;;5.07;;
1505;SDS011;744;51.436;7.356;2023-03-01T16:21:38;5.37;;;4.33;;
1505;SDS011;744;51.436;7.356;2023-03-01T16:24:05;7.20;;;4.43;;
1505;SDS011;744;51.436;7.356;2023-03-01T16:26:32;6.40;;;5.77;;
1505;SDS011;744;51.436;7.356;2023-03-01T16:28:59;5.53;;;5.10;;
1505;SDS011;744;51.436;7.356;2023-03-01T16:31:26;6.60;;;4.70;;
1505;SDS011;744;51.436;7.356;2023-03-01T16:33:54;6.23;;;5.53;;
1505;SDS011;744;51.436;7.356;2023-03-01T16:36:22;6.17;;;5.10;;
1505;SDS011;744;51.436;7.356;2023-03-01T16:38:51;5.27;;;4.37;;
1505;SDS011;744;51.436;7.356;2023-03-01T16:41:19;5.33;;;4.37;;
1505;SDS011;744;51.436;7.356;2023-03-01T16:43:48;7.33;;;5.50;;
1505;SDS011;744;51.436;7.356;2023-03-01T16:46:16;6.80;;;6.00;;
1505;SDS011;744;51.436;7.356;2023-03-01T16:48:46;6.90;;;6.20;;
1505;SDS011;744;51.436;7.356;2023-03-01T16:51:13;5.47;;;4.40;;
1505;SDS011;744;51.436;7.356;2023-03-01T16:53:40;6.03;;;4.77;;
1505;SDS011;744;51.436;7.356;2023-03-01T16:56:08;5.90;;;4.53;;
1505;SDS011;744;51.436;7.356;2023-03-01T16:58:36;6.73;;;4.43;;
1505;SDS011;744;51.436;7.356;2023-03-01T17:01:08;6.60;;;5.50;;
1505;SDS011;744;51.436;7.356;2023-03-01T17:03:37;5.50;;;5.00;;
1505;SDS011;744;51.436;7.356;2023-03-01T17:06:13;5.57;;;5.07;;
1505;SDS011;744;51.436;7.356;2023-03-01T17:08:41;5.80;;;5.00;;
1505;SDS011;744;51.436;7.356;2023-03-01T17:11:09;8.00;;;6.10;;
1505;SDS011;744;51.436;7.356;2023-03-01T17:13:38;7.20;;;6.13;;
1505;SDS011;744;51.436;7.356;2023-03-01T17:16:07;8.53;;;4.50;;
1505;SDS011;744;51.436;7.356;2023-03-01T17:18:36;7.67;;;6.07;;
1505;SDS011;744;51.436;7.356;2023-03-01T17:21:04;6.13;;;5.50;;
1505;SDS011;744;51.436;7.356;2023-03-01T17:23:32;6.30;;;5.70;;
1505;SDS011;744;51.436;7.356;2023-03-01T17:26:01;6.50;;;4.50;;
1505;SDS011;744;51.436;7.356;2023-03-01T17:28:29;9.40;;;6.90;;
1505;SDS011;744;51.436;7.356;2023-03-01T17:31:01;11.13;;;8.70;;
1505;SDS011;744;51.436;7.356;2023-03-01T17:33:29;13.13;;;7.70;;
1505;SDS011;744;51.436;7.356;2023-03-01T17:35:57;8.20;;;7.00;;
1505;SDS011;744;51.436;7.356;2023-03-01T17:38:25;6.17;;;5.13;;
1505;SDS011;744;51.436;7.356;2023-03-01T17:40:52;5.73;;;4.60;;
1505;SDS011;744;51.436;7.356;2023-03-01T17:43:18;5.60;;;5.07;;
1505;SDS011;744;51.436;7.356;2023-03-01T17:45:45;8.67;;;5.33;;
1505;SDS011;744;51.436;7.356;2023-03-01T17:48:17;7.70;;;5.03;;
1505;SDS011;744;51.436;7.356;2023-03-01T17:50:44;4.80;;;4.40;;
1505;SDS011;744;51.436;7.356;2023-03-01T17:53:11;5.40;;;4.80;;
1505;SDS011;744;51.436;7.356;2023-03-01T17:55:39;8.20;;;6.00;;
1505;SDS011;744;51.436;7.356;2023-03-01T17:58:11;9.20;;;5.53;;
1505;SDS011;744;51.436;7.356;2023-03-01T18:00:39;6.93;;;5.50;;